createdAt,value
2023-03-18T00:02:03.452Z,99491.41
2023-03-18T00:04:07.477Z,99489.59
2023-03-18T00:06:16.408Z,99489.59
2023-03-18T00:08:20.903Z,99491.28
2023-03-18T00:10:25.365Z,99493.91
2023-03-18T00:12:29.658Z,99501.00
2023-03-18T00:14:36.900Z,99495.59
2023-03-18T00:16:41.759Z,99499.22
2023-03-18T00:18:45.631Z,99495.72
2023-03-18T00:20:49.638Z,99499.34
2023-03-18T00:22:53.547Z,99506.44
2023-03-18T00:24:57.187Z,99513.56
2023-03-18T00:27:01.193Z,99521.50
2023-03-18T00:29:05.263Z,99519.81
2023-03-18T00:31:14.062Z,99523.56
2023-03-18T00:33:19.375Z,99520.22
2023-03-18T00:35:24.039Z,99523.13
2023-03-18T00:37:31.711Z,99516.28
2023-03-18T00:39:38.110Z,99525.19
2023-03-18T00:41:42.592Z,99524.34
2023-03-18T00:43:52.822Z,99522.53
2023-03-18T00:45:58.435Z,99526.88
2023-03-18T00:48:04.084Z,99533.81
2023-03-18T00:50:10.375Z,99535.50
2023-03-18T00:52:14.778Z,99537.19
2023-03-18T00:54:21.081Z,99529.13
2023-03-18T00:56:27.323Z,99531.63
2023-03-18T00:58:31.974Z,99534.16
2023-03-18T01:00:36.290Z,99527.88
2023-03-18T01:02:41.463Z,99527.75
2023-03-18T01:04:47.248Z,99532.91
2023-03-18T01:06:51.556Z,99531.00
2023-03-18T01:08:55.756Z,99534.47
2023-03-18T01:11:01.089Z,99537.00
2023-03-18T01:13:05.162Z,99533.50
2023-03-18T01:15:10.940Z,99533.66
2023-03-18T01:17:14.807Z,99531.00
2023-03-18T01:19:18.849Z,99536.16
2023-03-18T01:21:24.255Z,99532.78
2023-03-18T01:23:32.783Z,99527.63
2023-03-18T01:25:36.834Z,99530.41
2023-03-18T01:27:40.938Z,99534.00
2023-03-18T01:29:46.631Z,99536.78
2023-03-18T01:31:57.172Z,99542.22
2023-03-18T01:34:02.350Z,99551.13
2023-03-18T01:36:15.816Z,99550.31
2023-03-18T01:38:26.150Z,99553.91
2023-03-18T01:40:30.788Z,99550.44
2023-03-18T01:42:36.189Z,99549.47
2023-03-18T01:44:40.283Z,99550.31
2023-03-18T01:46:45.893Z,99553.91
2023-03-18T01:48:52.606Z,99557.66
2023-03-18T01:51:00.725Z,99563.81
2023-03-18T01:53:09.904Z,99559.47
2023-03-18T01:55:19.539Z,99556.94
2023-03-18T01:57:27.390Z,99560.44
2023-03-18T01:59:34.459Z,99558.50
2023-03-18T02:01:45.269Z,99558.50
2023-03-18T02:03:51.364Z,99563.66
2023-03-18T02:05:55.740Z,99561.97
2023-03-18T02:07:59.965Z,99568.97
2023-03-18T02:12:15.008Z,99562.25
2023-03-18T02:14:21.987Z,99569.38
2023-03-18T02:16:32.762Z,99568.38
2023-03-18T02:18:43.283Z,99570.19
2023-03-18T02:21:07.526Z,99568.50
2023-03-18T02:23:20.956Z,99575.03
2023-03-18T02:25:37.782Z,99571.69
2023-03-18T02:27:46.861Z,99574.47
2023-03-18T02:29:55.150Z,99572.75
2023-03-18T02:32:02.211Z,99577.19
2023-03-18T02:34:09.111Z,99578.06
2023-03-18T02:36:19.576Z,99575.53
2023-03-18T02:38:23.704Z,99574.69
2023-03-18T02:40:33.602Z,99581.66
2023-03-18T02:42:40.121Z,99583.59
2023-03-18T02:44:48.464Z,99580.13
2023-03-18T02:47:26.170Z,99588.06
2023-03-18T02:49:32.936Z,99584.56
2023-03-18T02:51:38.577Z,99583.72
2023-03-18T02:53:42.176Z,99587.34
2023-03-18T02:55:47.058Z,99589.16
2023-03-18T02:57:51.582Z,99593.47
2023-03-18T02:59:58.449Z,99597.94
2023-03-18T03:02:03.305Z,99597.22
2023-03-18T03:04:09.438Z,99597.94
2023-03-18T03:06:13.884Z,99598.78
2023-03-18T03:08:17.375Z,99601.53
2023-03-18T03:10:24.682Z,99599.84
2023-03-18T03:12:28.775Z,99607.81
2023-03-18T03:14:33.780Z,99609.75
2023-03-18T03:16:39.972Z,99615.28
2023-03-18T03:18:43.656Z,99614.31
2023-03-18T03:20:47.167Z,99616.00
2023-03-18T03:22:50.565Z,99616.00
2023-03-18T03:24:54.437Z,99611.53
2023-03-18T03:26:57.973Z,99620.44
2023-03-18T03:29:01.661Z,99620.56
2023-03-18T03:31:05.375Z,99615.28
2023-03-18T03:33:10.195Z,99617.78
2023-03-18T03:35:14.711Z,99625.63
2023-03-18T03:37:18.937Z,99624.63
2023-03-18T03:39:23.818Z,99622.97
2023-03-18T03:41:28.418Z,99620.34
2023-03-18T03:43:30.673Z,99626.34
2023-03-18T03:45:34.816Z,99626.19
2023-03-18T03:47:38.332Z,99627.88
2023-03-18T03:49:43.734Z,99622.59
2023-03-18T03:51:47.425Z,99627.75
2023-03-18T03:53:51.072Z,99628.72
2023-03-18T03:55:57.366Z,99628.03
2023-03-18T03:58:02.394Z,99629.09
2023-03-18T04:00:13.656Z,99633.78
2023-03-18T04:02:24.482Z,99627.69
2023-03-18T04:04:27.993Z,99631.16
2023-03-18T04:06:32.816Z,99632.97
2023-03-18T04:08:37.960Z,99634.78
2023-03-18T04:10:41.520Z,99631.16
2023-03-18T04:12:47.545Z,99632.97
2023-03-18T04:14:51.939Z,99632.13
2023-03-18T04:16:58.224Z,99630.44
2023-03-18T04:19:01.532Z,99630.56
2023-03-18T04:21:06.091Z,99627.19
2023-03-18T04:23:18.136Z,99628.88
2023-03-18T04:25:22.263Z,99627.06
2023-03-18T04:27:30.125Z,99631.91
2023-03-18T04:29:36.044Z,99627.84
2023-03-18T04:31:39.807Z,99625.19
2023-03-18T04:33:44.994Z,99622.56
2023-03-18T04:35:49.539Z,99617.13
2023-03-18T04:37:55.103Z,99626.63
2023-03-18T04:40:01.663Z,99630.22
2023-03-18T04:42:07.528Z,99629.50
2023-03-18T04:44:11.173Z,99636.75
2023-03-18T04:46:19.485Z,99638.53
2023-03-18T04:48:24.645Z,99641.28
2023-03-18T04:50:32.341Z,99649.38
2023-03-18T04:52:35.980Z,99646.84
2023-03-18T04:54:39.986Z,99648.66
2023-03-18T04:56:45.291Z,99646.13
2023-03-18T04:58:49.175Z,99651.66
2023-03-18T05:00:57.367Z,99653.59
2023-03-18T05:03:07.522Z,99657.31
2023-03-18T05:05:12.082Z,99653.94
2023-03-18T05:07:21.901Z,99660.31
2023-03-18T05:09:34.461Z,99649.16
2023-03-18T05:11:38.500Z,99654.69
2023-03-18T05:14:01.221Z,99656.00
2023-03-18T05:16:10.604Z,99659.84
2023-03-18T05:18:16.791Z,99666.25
2023-03-18T05:20:24.182Z,99662.03
2023-03-18T05:22:28.706Z,99663.94
2023-03-18T05:24:41.729Z,99666.97
2023-03-18T05:26:46.200Z,99670.94
2023-03-18T05:28:51.036Z,99671.16
2023-03-18T05:31:08.955Z,99674.03
2023-03-18T05:33:17.505Z,99673.34
2023-03-18T05:35:30.643Z,99668.88
2023-03-18T05:37:34.809Z,99661.03
2023-03-18T05:39:44.976Z,99663.19
2023-03-18T05:41:52.762Z,99667.75
2023-03-18T05:44:04.460Z,99674.00
2023-03-18T05:46:14.473Z,99677.81
2023-03-18T05:48:34.499Z,99680.69
2023-03-18T05:50:44.296Z,99681.91
2023-03-18T05:52:52.220Z,99685.59
2023-03-18T05:54:59.237Z,99685.59
2023-03-18T05:57:08.196Z,99688.38
2023-03-18T05:59:14.196Z,99685.72
2023-03-18T06:01:34.439Z,99686.91
2023-03-18T06:03:39.214Z,99688.81
2023-03-18T06:05:43.563Z,99685.47
2023-03-18T06:07:47.681Z,99688.09
2023-03-18T06:09:52.685Z,99684.59
2023-03-18T06:11:57.614Z,99698.88
2023-03-18T06:14:01.455Z,99682.75
2023-03-18T06:16:06.813Z,99693.75
2023-03-18T06:18:12.783Z,99692.69
2023-03-18T06:20:19.179Z,99696.03
2023-03-18T06:22:23.410Z,99703.75
2023-03-18T06:24:28.815Z,99710.50
2023-03-18T06:26:33.451Z,99710.38
2023-03-18T06:28:38.702Z,99709.25
2023-03-18T06:30:46.984Z,99711.06
2023-03-18T06:32:51.090Z,99718.88
2023-03-18T06:34:57.202Z,99711.69
2023-03-18T06:37:01.503Z,99712.28
2023-03-18T06:39:06.048Z,99715.66
2023-03-18T06:41:13.381Z,99720.75
2023-03-18T06:43:28.404Z,99723.16
2023-03-18T06:45:34.698Z,99723.91
2023-03-18T06:47:43.214Z,99731.81
2023-03-18T06:49:47.230Z,99738.06
2023-03-18T06:51:58.056Z,99737.34
2023-03-18T06:54:02.064Z,99746.09
2023-03-18T06:56:10.064Z,99742.63
2023-03-18T06:58:27.306Z,99748.84
2023-03-18T07:00:41.929Z,99750.63
2023-03-18T07:02:50.995Z,99751.59
2023-03-18T07:04:55.843Z,99753.34
2023-03-18T07:07:01.881Z,99754.97
2023-03-18T07:09:05.981Z,99761.00
2023-03-18T07:11:09.743Z,99762.78
2023-03-18T07:13:15.943Z,99764.22
2023-03-18T07:15:21.797Z,99760.19
2023-03-18T07:17:27.915Z,99761.31
2023-03-18T07:19:34.792Z,99764.31
2023-03-18T07:21:39.739Z,99771.78
2023-03-18T07:23:45.198Z,99777.56
2023-03-18T07:25:49.157Z,99781.47
2023-03-18T07:27:56.898Z,99780.97
2023-03-18T07:30:02.150Z,99787.47
2023-03-18T07:32:06.759Z,99785.47
2023-03-18T07:34:11.259Z,99791.25
2023-03-18T07:36:15.886Z,99793.41
2023-03-18T07:38:20.310Z,99799.31
2023-03-18T07:40:26.219Z,99798.81
2023-03-18T07:42:30.288Z,99794.53
2023-03-18T07:44:34.085Z,99804.41
2023-03-18T07:46:38.202Z,99792.38
2023-03-18T07:48:42.060Z,99798.41
2023-03-18T07:50:46.193Z,99809.69
2023-03-18T07:52:50.087Z,99802.84
2023-03-18T07:54:53.945Z,99810.91
2023-03-18T07:56:58.882Z,99811.38
2023-03-18T07:59:02.230Z,99808.38
2023-03-18T08:01:06.367Z,99818.25
2023-03-18T08:03:10.735Z,99821.25
2023-03-18T08:05:16.013Z,99818.84
2023-03-18T08:07:19.478Z,99815.34
2023-03-18T08:09:23.207Z,99819.78
2023-03-18T08:11:26.476Z,99812.44
2023-03-18T08:13:31.223Z,99824.72
2023-03-18T08:15:35.261Z,99827.06
2023-03-18T08:17:39.000Z,99826.94
2023-03-18T08:19:43.307Z,99837.59
2023-03-18T08:21:48.570Z,99843.25
2023-03-18T08:23:52.306Z,99839.25
2023-03-18T08:25:56.505Z,99837.88
2023-03-18T08:28:00.132Z,99841.72
2023-03-18T08:30:07.285Z,99843.59
2023-03-18T08:32:12.311Z,99845.22
2023-03-18T08:34:17.697Z,99844.19
2023-03-18T08:36:21.216Z,99845.66
2023-03-18T08:38:24.950Z,99847.16
2023-03-18T08:40:28.323Z,99852.94
2023-03-18T08:42:31.773Z,99847.41
2023-03-18T08:44:35.173Z,99847.94
2023-03-18T08:46:40.481Z,99860.28
2023-03-18T08:48:44.681Z,99853.00
2023-03-18T08:50:49.037Z,99861.09
2023-03-18T08:52:52.577Z,99862.22
2023-03-18T08:54:56.367Z,99865.97
2023-03-18T08:57:01.108Z,99868.09
2023-03-18T08:59:04.945Z,99868.31
2023-03-18T09:01:10.152Z,99872.13
2023-03-18T09:03:17.135Z,99878.41
2023-03-18T09:05:20.864Z,99876.84
2023-03-18T09:07:24.404Z,99879.63
2023-03-18T09:09:40.961Z,99874.47
2023-03-18T09:11:48.038Z,99874.19
2023-03-18T09:13:52.421Z,99876.72
2023-03-18T09:15:56.009Z,99872.22
2023-03-18T09:18:11.026Z,99879.22
2023-03-18T09:20:18.550Z,99881.06
2023-03-18T09:22:22.135Z,99886.50
2023-03-18T09:24:25.541Z,99879.63
2023-03-18T09:26:29.175Z,99880.34
2023-03-18T09:28:32.725Z,99881.19
2023-03-18T09:30:36.758Z,99890.72
2023-03-18T09:32:40.580Z,99885.00
2023-03-18T09:34:44.711Z,99886.41
2023-03-18T09:36:51.343Z,99884.06
2023-03-18T09:38:54.981Z,99884.38
2023-03-18T09:41:06.986Z,99885.78
2023-03-18T09:43:29.749Z,99890.94
2023-03-18T09:45:39.004Z,99892.50
2023-03-18T09:47:57.613Z,99894.28
2023-03-18T09:50:14.553Z,99901.44
2023-03-18T09:52:25.147Z,99901.44
2023-03-18T09:54:36.848Z,99897.38
2023-03-18T09:56:41.168Z,99904.72
2023-03-18T09:58:51.507Z,99908.91
2023-03-18T10:00:59.730Z,99915.59
2023-03-18T10:03:08.473Z,99915.41
2023-03-18T10:05:18.936Z,99916.88
2023-03-18T10:07:28.792Z,99920.75
2023-03-18T10:09:39.981Z,99929.13
2023-03-18T10:11:45.574Z,99929.38
2023-03-18T10:14:01.995Z,99926.00
2023-03-18T10:16:07.979Z,99927.69
2023-03-18T10:18:17.775Z,99927.19
2023-03-18T10:20:27.612Z,99941.75
2023-03-18T10:22:57.975Z,99936.31
2023-03-18T10:25:07.719Z,99940.66
2023-03-18T10:27:20.625Z,99935.34
2023-03-18T10:29:36.154Z,99931.59
2023-03-18T10:31:51.253Z,99941.00
2023-03-18T10:33:59.798Z,99938.22
2023-03-18T10:36:12.641Z,99939.03
2023-03-18T10:38:24.020Z,99941.28
2023-03-18T10:40:37.343Z,99950.00
2023-03-18T10:42:43.129Z,99946.22
2023-03-18T10:44:48.190Z,99944.41
2023-03-18T10:47:02.360Z,99940.19
2023-03-18T10:49:13.508Z,99950.44
2023-03-18T10:51:22.849Z,99945.81
2023-03-18T10:53:33.123Z,99953.78
2023-03-18T10:55:41.288Z,99955.16
2023-03-18T10:57:45.325Z,99956.81
2023-03-18T10:59:49.603Z,99959.25
2023-03-18T11:01:58.790Z,99960.34
2023-03-18T11:04:06.465Z,99961.31
2023-03-18T11:06:20.280Z,99966.22
2023-03-18T11:08:38.606Z,99969.38
2023-03-18T11:10:47.340Z,99978.63
2023-03-18T11:12:50.732Z,99976.09
2023-03-18T11:14:54.933Z,99972.97
2023-03-18T11:17:01.013Z,99970.69
2023-03-18T11:19:22.254Z,99984.81
2023-03-18T11:21:28.936Z,99977.84
2023-03-18T11:23:49.317Z,99979.75
2023-03-18T11:25:57.185Z,99979.31
2023-03-18T11:28:05.786Z,99979.31
2023-03-18T11:30:33.224Z,99984.75
2023-03-18T11:32:38.185Z,99991.88
2023-03-18T11:34:42.171Z,99992.44
2023-03-18T11:36:55.806Z,99991.34
2023-03-18T11:39:05.709Z,99989.16
2023-03-18T11:41:13.725Z,99991.34
2023-03-18T11:43:21.037Z,99999.16
2023-03-18T11:45:36.315Z,99997.63
2023-03-18T11:47:40.526Z,99998.00
2023-03-18T11:49:46.611Z,99998.34
2023-03-18T11:51:57.103Z,100003.19
2023-03-18T11:54:14.345Z,100007.69
2023-03-18T11:56:27.495Z,100016.75
2023-03-18T11:58:54.915Z,100018.25
2023-03-18T12:01:07.991Z,100020.94
2023-03-18T12:03:46.772Z,100025.81
2023-03-18T12:06:04.240Z,100048.06
2023-03-18T12:08:16.670Z,100046.69
2023-03-18T12:10:28.573Z,100053.19
2023-03-18T12:12:49.685Z,100063.56
2023-03-18T12:14:59.936Z,100069.16
2023-03-18T12:17:19.082Z,100078.75
2023-03-18T12:19:37.881Z,100083.19
2023-03-18T12:22:04.514Z,100085.28
2023-03-18T12:24:28.161Z,100093.63
2023-03-18T12:26:41.823Z,100105.13
2023-03-18T12:29:11.927Z,100111.09
2023-03-18T12:31:41.541Z,100118.75
2023-03-18T12:33:56.499Z,100113.88
2023-03-18T12:36:12.702Z,100117.69
2023-03-18T12:38:43.971Z,100129.56
2023-03-18T12:41:00.380Z,100132.31
2023-03-18T12:43:26.410Z,100136.03
2023-03-18T12:45:37.611Z,100144.19
2023-03-18T12:47:48.207Z,100153.41
2023-03-18T12:49:57.810Z,100146.63
2023-03-18T12:52:07.214Z,100149.59
2023-03-18T12:54:20.449Z,100151.41
2023-03-18T12:56:27.716Z,100154.16
2023-03-18T12:58:39.283Z,100157.44
2023-03-18T13:00:49.673Z,100151.06
2023-03-18T13:03:07.250Z,100159.75
2023-03-18T13:05:34.896Z,100161.88
2023-03-18T13:07:44.369Z,100167.66
2023-03-18T13:09:52.912Z,100166.41
2023-03-18T13:12:09.793Z,100181.81
2023-03-18T13:14:23.820Z,100176.81
2023-03-18T13:16:28.960Z,100180.53
2023-03-18T13:18:40.220Z,100183.47
2023-03-18T13:20:44.692Z,100185.25
2023-03-18T13:23:07.517Z,100192.56
2023-03-18T13:25:21.243Z,100189.41
2023-03-18T13:27:49.716Z,100195.75
2023-03-18T13:30:03.805Z,100187.28
2023-03-18T13:32:26.285Z,100192.19
2023-03-18T13:35:04.393Z,100192.50
2023-03-18T13:37:30.879Z,100196.22
2023-03-18T13:40:11.756Z,100199.38
2023-03-18T13:42:23.420Z,100187.06
2023-03-18T13:44:36.107Z,100191.00
2023-03-18T13:46:43.981Z,100190.22
2023-03-18T13:48:48.318Z,100197.59
2023-03-18T13:50:53.295Z,100193.34
2023-03-18T13:52:59.890Z,100193.47
2023-03-18T13:55:07.085Z,100199.75
2023-03-18T13:57:35.986Z,100204.00
2023-03-18T13:59:48.737Z,100220.00
2023-03-18T14:01:53.935Z,100212.84
2023-03-18T14:04:03.257Z,100222.03
2023-03-18T14:06:27.208Z,100219.59
2023-03-18T14:08:49.948Z,100222.38
2023-03-18T14:11:39.659Z,100225.75
2023-03-18T14:13:43.574Z,100230.53
2023-03-18T14:15:47.321Z,100224.38
2023-03-18T14:17:57.222Z,100238.22
2023-03-18T14:20:10.397Z,100233.59
2023-03-18T14:22:27.487Z,100243.63
2023-03-18T14:24:31.219Z,100240.66
2023-03-18T14:26:35.872Z,100241.91
2023-03-18T14:28:45.719Z,100245.50
2023-03-18T14:30:59.051Z,100249.06
2023-03-18T14:33:06.296Z,100253.06
2023-03-18T14:35:28.696Z,100251.16
2023-03-18T14:37:34.319Z,100263.00
2023-03-18T14:39:42.482Z,100253.28
2023-03-18T14:41:47.354Z,100267.69
2023-03-18T14:44:04.821Z,100272.34
2023-03-18T14:46:18.264Z,100270.25
2023-03-18T14:48:29.622Z,100272.69
2023-03-18T14:50:44.177Z,100287.53
2023-03-18T14:52:56.097Z,100298.66
2023-03-18T14:55:03.787Z,100298.44
2023-03-18T14:57:07.315Z,100298.13
2023-03-18T14:59:17.513Z,100316.22
2023-03-18T15:01:26.811Z,100311.22
2023-03-18T15:03:34.295Z,100307.09
2023-03-18T15:05:41.094Z,100310.69
2023-03-18T15:07:45.501Z,100319.38
2023-03-18T15:09:51.752Z,100315.44
2023-03-18T15:11:56.688Z,100314.94
2023-03-18T15:14:00.794Z,100317.19
2023-03-18T15:16:06.416Z,100318.44
2023-03-18T15:18:23.293Z,100311.13
2023-03-18T15:20:29.820Z,100299.91
2023-03-18T15:22:35.777Z,100312.50
2023-03-18T15:24:39.560Z,100303.50
2023-03-18T15:26:44.296Z,100322.97
2023-03-18T15:28:49.009Z,100319.78
2023-03-18T15:30:56.185Z,100316.00
2023-03-18T15:33:08.841Z,100318.13
2023-03-18T15:35:18.625Z,100324.06
2023-03-18T15:37:33.817Z,100333.59
2023-03-18T15:39:39.212Z,100330.72
2023-03-18T15:41:42.904Z,100321.63
2023-03-18T15:43:48.272Z,100322.03
2023-03-18T15:45:57.771Z,100319.06
2023-03-18T15:48:08.489Z,100321.41
2023-03-18T15:50:25.741Z,100323.81
2023-03-18T15:52:33.633Z,100324.88
2023-03-18T15:54:41.879Z,100325.22
2023-03-18T15:56:47.530Z,100325.63
2023-03-18T15:58:59.749Z,100323.41
2023-03-18T16:01:04.152Z,100328.81
2023-03-18T16:03:19.527Z,100336.22
2023-03-18T16:05:26.271Z,100349.22
2023-03-18T16:07:33.369Z,100336.00
2023-03-18T16:09:37.077Z,100346.50
2023-03-18T16:11:41.568Z,100352.75
2023-03-18T16:13:46.330Z,100353.56
2023-03-18T16:15:50.189Z,100340.22
2023-03-18T16:17:55.292Z,100344.16
2023-03-18T16:19:58.689Z,100354.94
2023-03-18T16:22:02.638Z,100356.31
2023-03-18T16:24:07.782Z,100363.31
2023-03-18T16:26:17.864Z,100360.25
2023-03-18T16:28:23.076Z,100361.72
2023-03-18T16:30:29.328Z,100367.44
2023-03-18T16:32:33.245Z,100372.97
2023-03-18T16:34:37.229Z,100373.16
2023-03-18T16:36:41.075Z,100374.44
2023-03-18T16:38:48.014Z,100381.00
2023-03-18T16:40:54.902Z,100389.34
2023-03-18T16:42:59.237Z,100388.06
2023-03-18T16:45:05.396Z,100395.88
2023-03-18T16:47:23.102Z,100406.34
2023-03-18T16:49:31.230Z,100398.06
2023-03-18T16:51:35.131Z,100411.47
2023-03-18T16:53:39.436Z,100424.91
2023-03-18T16:55:42.988Z,100416.41
2023-03-18T16:57:51.799Z,100422.84
2023-03-18T16:59:56.826Z,100421.25
2023-03-18T17:02:00.686Z,100436.50
2023-03-18T17:04:14.468Z,100439.41
2023-03-18T17:06:18.278Z,100428.94
2023-03-18T17:08:22.983Z,100435.16
2023-03-18T17:10:28.045Z,100456.25
2023-03-18T17:12:31.335Z,100471.44
2023-03-18T17:14:38.922Z,100466.44
2023-03-18T17:16:43.588Z,100458.16
2023-03-18T17:18:47.426Z,100486.00
2023-03-18T17:20:51.913Z,100468.16
2023-03-18T17:22:56.797Z,100472.31
2023-03-18T17:25:02.434Z,100478.25
2023-03-18T17:27:06.105Z,100477.69
2023-03-18T17:29:20.308Z,100478.63
2023-03-18T17:31:25.911Z,100475.78
2023-03-18T17:33:32.220Z,100490.31
2023-03-18T17:35:37.039Z,100482.19
2023-03-18T17:37:40.803Z,100488.06
2023-03-18T17:39:44.893Z,100492.41
2023-03-18T17:41:48.935Z,100501.28
2023-03-18T17:43:52.642Z,100505.78
2023-03-18T17:45:57.035Z,100500.69
2023-03-18T17:48:16.283Z,100507.88
2023-03-18T17:50:21.367Z,100517.00
2023-03-18T17:52:25.846Z,100519.00
2023-03-18T17:54:31.951Z,100528.88
2023-03-18T17:56:38.287Z,100529.91
2023-03-18T17:58:44.949Z,100522.91
2023-03-18T18:00:49.257Z,100531.81
2023-03-18T18:02:54.842Z,100534.53
2023-03-18T18:05:00.430Z,100531.22
2023-03-18T18:07:06.084Z,100546.38
2023-03-18T18:09:13.540Z,100546.69
2023-03-18T18:11:22.133Z,100546.09
2023-03-18T18:13:26.511Z,100549.94
2023-03-18T18:15:30.445Z,100566.06
2023-03-18T18:17:34.316Z,100561.13
2023-03-18T18:19:38.418Z,100566.59
2023-03-18T18:21:44.738Z,100580.03
2023-03-18T18:23:49.354Z,100593.50
2023-03-18T18:25:53.857Z,100590.16
2023-03-18T18:27:57.738Z,100591.22
2023-03-18T18:30:01.368Z,100592.16
2023-03-18T18:32:05.674Z,100585.34
2023-03-18T18:34:09.800Z,100601.31
2023-03-18T18:36:14.427Z,100595.41
2023-03-18T18:38:19.761Z,100604.31
2023-03-18T18:40:23.957Z,100603.63
2023-03-18T18:42:28.629Z,100596.75
2023-03-18T18:44:32.641Z,100606.63
2023-03-18T18:46:36.647Z,100612.84
2023-03-18T18:48:41.250Z,100620.06
2023-03-18T18:50:45.922Z,100631.66
2023-03-18T18:52:49.902Z,100634.34
2023-03-18T18:54:54.983Z,100630.94
2023-03-18T18:56:59.113Z,100630.94
2023-03-18T18:59:05.617Z,100635.44
2023-03-18T19:01:09.731Z,100636.41
2023-03-18T19:03:16.344Z,100632.22
2023-03-18T19:05:20.256Z,100642.06
2023-03-18T19:07:26.632Z,100653.56
2023-03-18T19:09:30.530Z,100651.19
2023-03-18T19:11:35.866Z,100654.72
2023-03-18T19:13:39.830Z,100653.19
2023-03-18T19:15:43.559Z,100655.09
2023-03-18T19:17:48.501Z,100652.50
2023-03-18T19:19:53.676Z,100658.81
2023-03-18T19:21:59.112Z,100660.66
2023-03-18T19:24:02.778Z,100667.81
2023-03-18T19:26:07.692Z,100685.38
2023-03-18T19:28:21.300Z,100691.66
2023-03-18T19:30:25.995Z,100703.13
2023-03-18T19:32:29.657Z,100705.94
2023-03-18T19:34:36.093Z,100710.38
2023-03-18T19:36:42.806Z,100705.31
2023-03-18T19:38:46.627Z,100711.63
2023-03-18T19:40:53.027Z,100717.91
2023-03-18T19:42:56.595Z,100721.63
2023-03-18T19:45:02.087Z,100715.56
2023-03-18T19:47:05.719Z,100716.66
2023-03-18T19:49:22.565Z,100710.69
2023-03-18T19:51:26.232Z,100715.19
2023-03-18T19:53:30.432Z,100722.38
2023-03-18T19:55:34.077Z,100728.50
2023-03-18T19:57:38.041Z,100725.97
2023-03-18T19:59:42.431Z,100729.59
2023-03-18T20:01:48.178Z,100734.06
2023-03-18T20:03:55.580Z,100741.22
2023-03-18T20:06:00.499Z,100735.06
2023-03-18T20:08:04.642Z,100745.78
2023-03-18T20:10:11.281Z,100744.94
2023-03-18T20:12:23.037Z,100747.66
2023-03-18T20:14:28.914Z,100755.59
2023-03-18T20:16:32.787Z,100761.88
2023-03-18T20:18:38.800Z,100759.25
2023-03-18T20:20:44.578Z,100763.66
2023-03-18T20:22:53.117Z,100765.44
2023-03-18T20:24:58.944Z,100761.09
2023-03-18T20:27:02.603Z,100773.53
2023-03-18T20:29:24.162Z,100765.72
2023-03-18T20:31:30.104Z,100772.00
2023-03-18T20:33:33.990Z,100782.53
2023-03-18T20:35:42.466Z,100777.41
2023-03-18T20:37:47.935Z,100785.38
2023-03-18T20:39:52.501Z,100777.56
2023-03-18T20:41:57.376Z,100776.69
2023-03-18T20:44:01.449Z,100769.75
2023-03-18T20:46:05.929Z,100773.28
2023-03-18T20:48:10.258Z,100774.28
2023-03-18T20:50:15.969Z,100784.91
2023-03-18T20:52:27.360Z,100775.28
2023-03-18T20:54:31.663Z,100771.81
2023-03-18T20:56:35.578Z,100777.16
2023-03-18T20:58:39.296Z,100782.53
2023-03-18T21:00:43.842Z,100783.50
2023-03-18T21:02:49.918Z,100796.78
2023-03-18T21:04:54.502Z,100796.84
2023-03-18T21:06:58.606Z,100799.63
2023-03-18T21:09:05.073Z,100794.53
2023-03-18T21:11:22.822Z,100803.31
2023-03-18T21:13:29.791Z,100808.63
2023-03-18T21:15:34.028Z,100816.53
2023-03-18T21:17:39.484Z,100817.44
2023-03-18T21:19:43.201Z,100835.03
2023-03-18T21:21:47.057Z,100849.09
2023-03-18T21:23:51.260Z,100849.09
2023-03-18T21:26:01.456Z,100858.78
2023-03-18T21:28:05.335Z,100850.88
2023-03-18T21:30:11.129Z,100863.09
2023-03-18T21:32:23.482Z,100863.16
2023-03-18T21:34:27.213Z,100863.16
2023-03-18T21:36:31.366Z,100862.31
2023-03-18T21:38:35.794Z,100869.31
2023-03-18T21:40:39.891Z,100879.84
2023-03-18T21:42:46.629Z,100872.84
2023-03-18T21:44:52.088Z,100877.25
2023-03-18T21:46:56.501Z,100877.25
2023-03-18T21:49:01.150Z,100886.00
2023-03-18T21:51:05.383Z,100897.44
2023-03-18T21:53:13.623Z,100895.72
2023-03-18T21:55:18.738Z,100895.72
2023-03-18T21:57:24.917Z,100894.81
2023-03-18T21:59:30.140Z,100894.81
2023-03-18T22:01:34.725Z,100901.78
2023-03-18T22:03:39.255Z,100906.16
2023-03-18T22:05:43.414Z,100900.09
2023-03-18T22:07:47.919Z,100898.28
2023-03-18T22:09:52.243Z,100904.56
2023-03-18T22:11:56.974Z,100905.41
2023-03-18T22:14:01.320Z,100906.41
2023-03-18T22:16:07.817Z,100901.13
2023-03-18T22:18:12.506Z,100904.69
2023-03-18T22:20:17.240Z,100913.53
2023-03-18T22:22:22.368Z,100917.97
2023-03-18T22:24:26.001Z,100924.16
2023-03-18T22:26:29.777Z,100931.13
2023-03-18T22:28:33.616Z,100920.63
2023-03-18T22:30:37.437Z,100926.78
2023-03-18T22:32:44.972Z,100918.97
2023-03-18T22:34:48.664Z,100912.78
2023-03-18T22:36:52.338Z,100907.53
2023-03-18T22:38:55.938Z,100910.22
2023-03-18T22:41:00.005Z,100912.06
2023-03-18T22:43:05.579Z,100918.31
2023-03-18T22:45:24.164Z,100928.13
2023-03-18T22:47:31.490Z,100934.38
2023-03-18T22:49:36.725Z,100934.59
2023-03-18T22:51:42.432Z,100945.22
2023-03-18T22:53:50.738Z,100945.28
2023-03-18T22:55:56.805Z,100944.56
2023-03-18T22:58:00.558Z,100942.88
2023-03-18T23:00:07.665Z,100946.47
2023-03-18T23:02:17.377Z,100941.28
2023-03-18T23:04:21.104Z,100929.13
2023-03-18T23:06:27.443Z,100927.41
2023-03-18T23:08:31.563Z,100929.28
2023-03-18T23:10:35.550Z,100920.56
2023-03-18T23:12:39.484Z,100920.63
2023-03-18T23:14:43.213Z,100920.78
2023-03-18T23:16:46.862Z,100926.13
2023-03-18T23:18:51.926Z,100922.66
2023-03-18T23:20:56.454Z,100922.72
2023-03-18T23:23:01.533Z,100922.72
2023-03-18T23:25:06.976Z,100918.31
2023-03-18T23:27:11.113Z,100921.81
2023-03-18T23:29:14.859Z,100931.41
2023-03-18T23:31:19.180Z,100929.72
2023-03-18T23:33:23.262Z,100931.53
2023-03-18T23:35:27.423Z,100933.38
2023-03-18T23:37:31.717Z,100945.72
2023-03-18T23:39:43.043Z,100947.59
2023-03-18T23:41:46.938Z,100950.31
2023-03-18T23:43:51.183Z,100952.16
2023-03-18T23:45:55.573Z,100945.31
2023-03-18T23:47:59.379Z,100950.63
2023-03-18T23:50:03.088Z,100949.00
2023-03-18T23:52:09.309Z,100949.97
2023-03-18T23:54:13.276Z,100951.75
2023-03-18T23:56:18.297Z,100962.34
2023-03-18T23:58:21.814Z,100968.56
